sensor_id;sensor_type;location;lat;lon;timestamp;temperature;humidity
75210;DHT22;63796;53.136;14.882;2022-11-14T02:13:25;7.40;99.90
75210;DHT22;63796;53.136;14.882;2022-11-14T02:15:52;7.40;99.90
75210;DHT22;63796;53.136;14.882;2022-11-14T02:18:19;7.40;99.90
75210;DHT22;63796;53.136;14.882;2022-11-14T02:20:46;7.40;99.90
75210;DHT22;63796;53.136;14.882;2022-11-14T02:23:13;7.40;99.90
75210;DHT22;63796;53.136;14.882;2022-11-14T02:25:42;7.50;99.90
75210;DHT22;63796;53.136;14.882;2022-11-14T02:28:09;7.40;99.90
75210;DHT22;63796;53.136;14.882;2022-11-14T02:30:36;7.40;99.90
75210;DHT22;63796;53.136;14.882;2022-11-14T02:33:03;7.50;99.90
75210;DHT22;63796;53.136;14.882;2022-11-14T02:35:30;7.50;99.90
75210;DHT22;63796;53.136;14.882;2022-11-14T02:37:56;7.40;99.90
75210;DHT22;63796;53.136;14.882;2022-11-14T02:40:23;7.40;99.90
75210;DHT22;63796;53.136;14.882;2022-11-14T02:42:50;7.50;99.90
75210;DHT22;63796;53.136;14.882;2022-11-14T02:45:17;7.40;99.90
75210;DHT22;63796;53.136;14.882;2022-11-14T02:47:45;7.40;99.90
75210;DHT22;63796;53.136;14.882;2022-11-14T02:50:13;7.50;99.90
75210;DHT22;63796;53.136;14.882;2022-11-14T02:52:39;7.50;99.90
75210;DHT22;63796;53.136;14.882;2022-11-14T02:55:07;7.40;99.90
75210;DHT22;63796;53.136;14.882;2022-11-14T02:57:34;7.50;99.90
75210;DHT22;63796;53.136;14.882;2022-11-14T03:00:01;7.50;99.90
75210;DHT22;63796;53.136;14.882;2022-11-14T03:02:29;7.50;99.90
75210;DHT22;63796;53.136;14.882;2022-11-14T03:04:56;7.50;99.90
75210;DHT22;63796;53.136;14.882;2022-11-14T03:07:23;7.40;99.90
75210;DHT22;63796;53.136;14.882;2022-11-14T03:09:50;7.50;99.90
75210;DHT22;63796;53.136;14.882;2022-11-14T03:12:18;7.60;99.90
75210;DHT22;63796;53.136;14.882;2022-11-14T03:14:45;7.40;99.90
75210;DHT22;63796;53.136;14.882;2022-11-14T03:17:12;7.50;99.90
75210;DHT22;63796;53.136;14.882;2022-11-14T03:19:39;7.40;99.90
75210;DHT22;63796;53.136;14.882;2022-11-14T03:22:06;7.40;99.90
75210;DHT22;63796;53.136;14.882;2022-11-14T03:24:33;7.40;99.90
75210;DHT22;63796;53.136;14.882;2022-11-14T03:27:00;7.40;99.90
75210;DHT22;63796;53.136;14.882;2022-11-14T03:29:27;7.40;99.90
75210;DHT22;63796;53.136;14.882;2022-11-14T03:31:54;7.40;99.90
75210;DHT22;63796;53.136;14.882;2022-11-14T03:34:21;7.40;99.90
75210;DHT22;63796;53.136;14.882;2022-11-14T03:36:48;7.30;99.90
75210;DHT22;63796;53.136;14.882;2022-11-14T03:39:15;7.40;99.90
75210;DHT22;63796;53.136;14.882;2022-11-14T03:41:41;7.60;99.90
75210;DHT22;63796;53.136;14.882;2022-11-14T03:44:09;7.60;99.90
75210;DHT22;63796;53.136;14.882;2022-11-14T03:46:36;7.40;99.90
75210;DHT22;63796;53.136;14.882;2022-11-14T03:49:02;7.40;99.90
75210;DHT22;63796;53.136;14.882;2022-11-14T03:51:30;7.50;99.90
75210;DHT22;63796;53.136;14.882;2022-11-14T03:53:57;7.50;99.90
75210;DHT22;63796;53.136;14.882;2022-11-14T03:56:24;7.40;99.90
75210;DHT22;63796;53.136;14.882;2022-11-14T03:58:51;7.50;99.90
75210;DHT22;63796;53.136;14.882;2022-11-14T04:01:18;7.40;99.90
75210;DHT22;63796;53.136;14.882;2022-11-14T04:03:45;7.40;99.90
75210;DHT22;63796;53.136;14.882;2022-11-14T04:06:12;7.50;99.90
75210;DHT22;63796;53.136;14.882;2022-11-14T04:08:39;7.50;99.90
75210;DHT22;63796;53.136;14.882;2022-11-14T04:11:07;7.50;99.90
75210;DHT22;63796;53.136;14.882;2022-11-14T04:13:34;7.30;99.90
75210;DHT22;63796;53.136;14.882;2022-11-14T04:16:01;7.30;99.90
75210;DHT22;63796;53.136;14.882;2022-11-14T04:18:28;7.30;99.90
75210;DHT22;63796;53.136;14.882;2022-11-14T04:20:55;7.40;99.90
75210;DHT22;63796;53.136;14.882;2022-11-14T04:23:22;7.40;99.90
75210;DHT22;63796;53.136;14.882;2022-11-14T04:25:49;7.40;99.90
75210;DHT22;63796;53.136;14.882;2022-11-14T04:28:15;7.40;99.90
75210;DHT22;63796;53.136;14.882;2022-11-14T04:30:42;7.40;99.90
75210;DHT22;63796;53.136;14.882;2022-11-14T04:33:10;7.30;99.90
75210;DHT22;63796;53.136;14.882;2022-11-14T04:35:37;7.30;99.90
75210;DHT22;63796;53.136;14.882;2022-11-14T04:38:05;7.50;99.90
75210;DHT22;63796;53.136;14.882;2022-11-14T04:40:32;7.50;99.90
75210;DHT22;63796;53.136;14.882;2022-11-14T04:42:59;7.40;99.90
75210;DHT22;63796;53.136;14.882;2022-11-14T04:45:25;7.50;99.90
75210;DHT22;63796;53.136;14.882;2022-11-14T04:47:53;7.40;99.90
75210;DHT22;63796;53.136;14.882;2022-11-14T04:50:19;7.40;99.90
75210;DHT22;63796;53.136;14.882;2022-11-14T04:52:51;7.30;99.90
75210;DHT22;63796;53.136;14.882;2022-11-14T04:55:19;7.30;99.90
75210;DHT22;63796;53.136;14.882;2022-11-14T04:57:46;7.30;99.90
75210;DHT22;63796;53.136;14.882;2022-11-14T05:00:13;7.20;99.90
75210;DHT22;63796;53.136;14.882;2022-11-14T05:02:41;7.30;99.90
75210;DHT22;63796;53.136;14.882;2022-11-14T05:05:08;7.20;99.90
75210;DHT22;63796;53.136;14.882;2022-11-14T05:07:35;7.30;99.90
75210;DHT22;63796;53.136;14.882;2022-11-14T05:10:02;7.30;99.90
75210;DHT22;63796;53.136;14.882;2022-11-14T05:12:29;7.30;99.90
75210;DHT22;63796;53.136;14.882;2022-11-14T05:14:56;7.30;99.90
75210;DHT22;63796;53.136;14.882;2022-11-14T05:17:23;7.40;99.90
75210;DHT22;63796;53.136;14.882;2022-11-14T05:19:50;7.50;99.90
75210;DHT22;63796;53.136;14.882;2022-11-14T05:22:17;7.50;99.90
75210;DHT22;63796;53.136;14.882;2022-11-14T05:24:44;7.40;99.90
75210;DHT22;63796;53.136;14.882;2022-11-14T05:27:10;7.40;99.90
75210;DHT22;63796;53.136;14.882;2022-11-14T05:29:37;7.40;99.90
75210;DHT22;63796;53.136;14.882;2022-11-14T05:32:04;7.30;99.90
75210;DHT22;63796;53.136;14.882;2022-11-14T05:34:31;7.30;99.90
75210;DHT22;63796;53.136;14.882;2022-11-14T05:36:58;7.40;99.90
75210;DHT22;63796;53.136;14.882;2022-11-14T05:39:25;7.50;99.90
75210;DHT22;63796;53.136;14.882;2022-11-14T05:41:52;7.40;99.90
75210;DHT22;63796;53.136;14.882;2022-11-14T05:44:19;7.30;99.90
75210;DHT22;63796;53.136;14.882;2022-11-14T05:46:46;7.20;99.90
75210;DHT22;63796;53.136;14.882;2022-11-14T05:49:12;7.30;99.90
75210;DHT22;63796;53.136;14.882;2022-11-14T05:51:39;7.30;99.90
75210;DHT22;63796;53.136;14.882;2022-11-14T05:54:06;7.30;99.90
75210;DHT22;63796;53.136;14.882;2022-11-14T05:56:33;7.30;99.90
75210;DHT22;63796;53.136;14.882;2022-11-14T05:59:00;7.30;99.90
75210;DHT22;63796;53.136;14.882;2022-11-14T06:01:27;7.30;99.90
75210;DHT22;63796;53.136;14.882;2022-11-14T06:03:54;7.30;99.90
75210;DHT22;63796;53.136;14.882;2022-11-14T06:06:21;7.30;99.90
75210;DHT22;63796;53.136;14.882;2022-11-14T06:08:48;7.40;99.90
75210;DHT22;63796;53.136;14.882;2022-11-14T06:11:20;7.40;99.90
75210;DHT22;63796;53.136;14.882;2022-11-14T06:13:46;7.40;99.90
75210;DHT22;63796;53.136;14.882;2022-11-14T06:16:15;7.40;99.90
75210;DHT22;63796;53.136;14.882;2022-11-14T06:18:44;7.40;99.90
75210;DHT22;63796;53.136;14.882;2022-11-14T06:21:16;7.30;99.90
75210;DHT22;63796;53.136;14.882;2022-11-14T06:23:45;7.30;99.90
75210;DHT22;63796;53.136;14.882;2022-11-14T06:26:18;7.40;99.90
75210;DHT22;63796;53.136;14.882;2022-11-14T06:28:48;7.40;99.90
75210;DHT22;63796;53.136;14.882;2022-11-14T06:31:17;7.40;99.90
75210;DHT22;63796;53.136;14.882;2022-11-14T06:33:45;7.50;99.90
75210;DHT22;63796;53.136;14.882;2022-11-14T06:36:12;7.50;99.90
75210;DHT22;63796;53.136;14.882;2022-11-14T06:38:40;7.40;99.90
75210;DHT22;63796;53.136;14.882;2022-11-14T06:41:10;7.50;99.90
75210;DHT22;63796;53.136;14.882;2022-11-14T06:43:44;7.40;99.90
75210;DHT22;63796;53.136;14.882;2022-11-14T06:46:13;7.40;99.90
75210;DHT22;63796;53.136;14.882;2022-11-14T06:48:41;7.40;99.90
75210;DHT22;63796;53.136;14.882;2022-11-14T06:51:11;7.40;99.90
75210;DHT22;63796;53.136;14.882;2022-11-14T06:53:39;7.50;99.90
75210;DHT22;63796;53.136;14.882;2022-11-14T06:56:09;7.50;99.90
75210;DHT22;63796;53.136;14.882;2022-11-14T06:58:40;7.50;99.90
75210;DHT22;63796;53.136;14.882;2022-11-14T07:01:15;7.50;99.90
75210;DHT22;63796;53.136;14.882;2022-11-14T07:03:44;7.50;99.90
75210;DHT22;63796;53.136;14.882;2022-11-14T07:06:23;7.60;99.90
75210;DHT22;63796;53.136;14.882;2022-11-14T07:08:48;7.50;99.90
75210;DHT22;63796;53.136;14.882;2022-11-14T07:11:18;7.60;99.90
75210;DHT22;63796;53.136;14.882;2022-11-14T07:13:58;7.60;99.90
75210;DHT22;63796;53.136;14.882;2022-11-14T07:16:28;7.70;99.90
75210;DHT22;63796;53.136;14.882;2022-11-14T07:18:58;7.70;99.90
75210;DHT22;63796;53.136;14.882;2022-11-14T07:21:26;7.70;99.90
75210;DHT22;63796;53.136;14.882;2022-11-14T07:23:56;7.70;99.90
75210;DHT22;63796;53.136;14.882;2022-11-14T07:26:23;7.80;99.90
75210;DHT22;63796;53.136;14.882;2022-11-14T07:28:50;7.80;99.90
75210;DHT22;63796;53.136;14.882;2022-11-14T07:31:18;7.80;99.90
75210;DHT22;63796;53.136;14.882;2022-11-14T07:33:45;7.80;99.90
75210;DHT22;63796;53.136;14.882;2022-11-14T07:36:13;7.80;99.90
75210;DHT22;63796;53.136;14.882;2022-11-14T07:38:41;7.80;99.90
75210;DHT22;63796;53.136;14.882;2022-11-14T07:41:11;7.80;99.90
75210;DHT22;63796;53.136;14.882;2022-11-14T07:43:39;7.90;99.90
75210;DHT22;63796;53.136;14.882;2022-11-14T07:46:16;8.00;99.90
75210;DHT22;63796;53.136;14.882;2022-11-14T07:48:42;8.00;99.90
75210;DHT22;63796;53.136;14.882;2022-11-14T07:51:18;8.00;99.90
75210;DHT22;63796;53.136;14.882;2022-11-14T07:53:44;7.90;99.90
75210;DHT22;63796;53.136;14.882;2022-11-14T07:56:11;8.10;99.90
75210;DHT22;63796;53.136;14.882;2022-11-14T07:58:39;8.00;99.90
75210;DHT22;63796;53.136;14.882;2022-11-14T08:01:09;8.00;99.90
75210;DHT22;63796;53.136;14.882;2022-11-14T08:03:37;8.00;99.90
75210;DHT22;63796;53.136;14.882;2022-11-14T08:06:10;8.00;99.90
75210;DHT22;63796;53.136;14.882;2022-11-14T08:08:38;8.00;99.90
75210;DHT22;63796;53.136;14.882;2022-11-14T08:11:05;8.10;99.90
75210;DHT22;63796;53.136;14.882;2022-11-14T08:13:33;8.10;99.90
75210;DHT22;63796;53.136;14.882;2022-11-14T08:16:05;8.10;99.90
75210;DHT22;63796;53.136;14.882;2022-11-14T08:18:33;8.30;99.90
75210;DHT22;63796;53.136;14.882;2022-11-14T08:21:04;8.50;99.90
75210;DHT22;63796;53.136;14.882;2022-11-14T08:23:31;8.50;99.90
75210;DHT22;63796;53.136;14.882;2022-11-14T08:25:58;8.40;99.90
75210;DHT22;63796;53.136;14.882;2022-11-14T08:28:26;8.30;99.90
75210;DHT22;63796;53.136;14.882;2022-11-14T08:31:01;8.30;99.90
75210;DHT22;63796;53.136;14.882;2022-11-14T08:33:30;8.40;99.90
75210;DHT22;63796;53.136;14.882;2022-11-14T08:36:04;8.40;99.90
75210;DHT22;63796;53.136;14.882;2022-11-14T08:38:33;8.50;99.90
75210;DHT22;63796;53.136;14.882;2022-11-14T08:41:00;8.30;99.90
75210;DHT22;63796;53.136;14.882;2022-11-14T08:43:29;8.40;99.90
75210;DHT22;63796;53.136;14.882;2022-11-14T08:45:58;8.20;99.90
75210;DHT22;63796;53.136;14.882;2022-11-14T08:48:26;8.20;99.90
75210;DHT22;63796;53.136;14.882;2022-11-14T08:50:53;8.50;99.90
75210;DHT22;63796;53.136;14.882;2022-11-14T08:53:20;8.30;99.90
75210;DHT22;63796;53.136;14.882;2022-11-14T08:55:48;8.20;99.90
75210;DHT22;63796;53.136;14.882;2022-11-14T08:58:15;8.40;99.90
75210;DHT22;63796;53.136;14.882;2022-11-14T09:00:42;8.40;99.90
75210;DHT22;63796;53.136;14.882;2022-11-14T09:03:13;8.40;99.90
75210;DHT22;63796;53.136;14.882;2022-11-14T09:05:41;8.40;99.90
75210;DHT22;63796;53.136;14.882;2022-11-14T09:08:08;8.30;99.90
75210;DHT22;63796;53.136;14.882;2022-11-14T09:10:36;8.50;99.90
75210;DHT22;63796;53.136;14.882;2022-11-14T09:13:03;8.30;99.90
75210;DHT22;63796;53.136;14.882;2022-11-14T09:15:31;8.20;99.90
75210;DHT22;63796;53.136;14.882;2022-11-14T09:17:59;8.20;99.90
75210;DHT22;63796;53.136;14.882;2022-11-14T09:20:26;8.30;99.90
75210;DHT22;63796;53.136;14.882;2022-11-14T09:22:59;8.30;99.90
75210;DHT22;63796;53.136;14.882;2022-11-14T09:25:28;8.30;99.90
75210;DHT22;63796;53.136;14.882;2022-11-14T09:27:56;8.30;99.90
75210;DHT22;63796;53.136;14.882;2022-11-14T09:30:23;8.10;99.90
75210;DHT22;63796;53.136;14.882;2022-11-14T09:32:51;8.20;99.90
75210;DHT22;63796;53.136;14.882;2022-11-14T09:35:18;8.40;99.90
75210;DHT22;63796;53.136;14.882;2022-11-14T09:37:45;8.30;99.90
75210;DHT22;63796;53.136;14.882;2022-11-14T09:40:12;8.40;99.90
75210;DHT22;63796;53.136;14.882;2022-11-14T09:45:46;8.40;99.90
75210;DHT22;63796;53.136;14.882;2022-11-14T09:48:21;8.50;99.90
75210;DHT22;63796;53.136;14.882;2022-11-14T09:51:14;8.60;99.90
75210;DHT22;63796;53.136;14.882;2022-11-14T09:53:58;8.60;99.90
75210;DHT22;63796;53.136;14.882;2022-11-14T09:56:10;8.40;99.90
75210;DHT22;63796;53.136;14.882;2022-11-14T09:58:40;8.50;99.90
75210;DHT22;63796;53.136;14.882;2022-11-14T10:01:31;8.30;99.90
75210;DHT22;63796;53.136;14.882;2022-11-14T10:15:25;8.30;99.90
75210;DHT22;63796;53.136;14.882;2022-11-14T10:20:57;8.20;99.90
75210;DHT22;63796;53.136;14.882;2022-11-14T10:26:54;8.50;99.90
75210;DHT22;63796;53.136;14.882;2022-11-14T10:35:52;8.40;99.90
75210;DHT22;63796;53.136;14.882;2022-11-14T10:38:37;8.30;99.90
75210;DHT22;63796;53.136;14.882;2022-11-14T10:41:08;8.30;99.90
75210;DHT22;63796;53.136;14.882;2022-11-14T10:43:45;8.10;99.90
75210;DHT22;63796;53.136;14.882;2022-11-14T10:48:54;8.30;99.90
75210;DHT22;63796;53.136;14.882;2022-11-14T10:51:32;8.50;99.90
75210;DHT22;63796;53.136;14.882;2022-11-14T10:56:49;8.50;99.90
75210;DHT22;63796;53.136;14.882;2022-11-14T10:59:19;8.60;99.90
75210;DHT22;63796;53.136;14.882;2022-11-14T11:04:33;8.60;99.90
75210;DHT22;63796;53.136;14.882;2022-11-14T11:09:41;9.30;99.90
75210;DHT22;63796;53.136;14.882;2022-11-14T11:12:39;9.90;99.90
75210;DHT22;63796;53.136;14.882;2022-11-14T11:15:19;10.60;99.90
75210;DHT22;63796;53.136;14.882;2022-11-14T11:17:55;11.70;99.90
75210;DHT22;63796;53.136;14.882;2022-11-14T11:20:37;11.60;99.90
75210;DHT22;63796;53.136;14.882;2022-11-14T11:25:39;11.70;99.90
75210;DHT22;63796;53.136;14.882;2022-11-14T11:28:11;11.90;99.90
75210;DHT22;63796;53.136;14.882;2022-11-14T11:30:56;12.10;99.90
75210;DHT22;63796;53.136;14.882;2022-11-14T11:33:30;11.70;99.90
75210;DHT22;63796;53.136;14.882;2022-11-14T11:36:05;12.20;99.90
75210;DHT22;63796;53.136;14.882;2022-11-14T11:38:32;12.30;99.90
75210;DHT22;63796;53.136;14.882;2022-11-14T11:41:18;12.60;99.90
75210;DHT22;63796;53.136;14.882;2022-11-14T11:43:58;12.10;99.90
75210;DHT22;63796;53.136;14.882;2022-11-14T11:46:54;11.50;99.90
75210;DHT22;63796;53.136;14.882;2022-11-14T11:55:24;10.60;99.90
75210;DHT22;63796;53.136;14.882;2022-11-14T11:58:05;10.60;99.90
75210;DHT22;63796;53.136;14.882;2022-11-14T12:00:44;10.20;99.90
75210;DHT22;63796;53.136;14.882;2022-11-14T12:03:13;10.30;99.90
75210;DHT22;63796;53.136;14.882;2022-11-14T12:06:10;10.40;99.90
75210;DHT22;63796;53.136;14.882;2022-11-14T12:11:42;10.90;99.90
75210;DHT22;63796;53.136;14.882;2022-11-14T12:20:13;10.80;99.90
75210;DHT22;63796;53.136;14.882;2022-11-14T12:22:54;10.70;99.90
75210;DHT22;63796;53.136;14.882;2022-11-14T12:31:30;10.50;99.90
75210;DHT22;63796;53.136;14.882;2022-11-14T12:34:00;10.40;99.90
75210;DHT22;63796;53.136;14.882;2022-11-14T12:36:43;10.50;99.90
75210;DHT22;63796;53.136;14.882;2022-11-14T12:39:23;10.40;99.90
75210;DHT22;63796;53.136;14.882;2022-11-14T12:42:00;10.40;99.90
75210;DHT22;63796;53.136;14.882;2022-11-14T12:44:37;10.70;99.90
75210;DHT22;63796;53.136;14.882;2022-11-14T12:52:43;10.40;99.90
75210;DHT22;63796;53.136;14.882;2022-11-14T12:58:12;10.20;99.90
75210;DHT22;63796;53.136;14.882;2022-11-14T13:06:08;10.10;99.90
75210;DHT22;63796;53.136;14.882;2022-11-14T13:11:43;10.00;99.90
75210;DHT22;63796;53.136;14.882;2022-11-14T13:14:27;10.10;99.90
75210;DHT22;63796;53.136;14.882;2022-11-14T13:17:24;9.90;99.90
75210;DHT22;63796;53.136;14.882;2022-11-14T13:20:32;9.80;99.90
75210;DHT22;63796;53.136;14.882;2022-11-14T13:28:47;9.90;99.90
75210;DHT22;63796;53.136;14.882;2022-11-14T13:31:18;9.90;99.90
75210;DHT22;63796;53.136;14.882;2022-11-14T13:33:48;10.10;99.90
75210;DHT22;63796;53.136;14.882;2022-11-14T13:39:25;9.90;99.90
75210;DHT22;63796;53.136;14.882;2022-11-14T13:50:31;9.50;99.90
75210;DHT22;63796;53.136;14.882;2022-11-14T13:53:00;9.60;99.90
75210;DHT22;63796;53.136;14.882;2022-11-14T14:12:49;8.90;99.90
75210;DHT22;63796;53.136;14.882;2022-11-14T14:15:39;8.90;99.90
75210;DHT22;63796;53.136;14.882;2022-11-14T14:18:22;8.80;99.90
75210;DHT22;63796;53.136;14.882;2022-11-14T14:21:20;8.70;99.90
75210;DHT22;63796;53.136;14.882;2022-11-14T14:24:01;8.60;99.90
75210;DHT22;63796;53.136;14.882;2022-11-14T14:32:18;8.50;99.90
75210;DHT22;63796;53.136;14.882;2022-11-14T14:34:45;8.50;99.90
75210;DHT22;63796;53.136;14.882;2022-11-14T14:37:24;8.40;99.90
75210;DHT22;63796;53.136;14.882;2022-11-14T14:40:00;8.30;99.90
75210;DHT22;63796;53.136;14.882;2022-11-14T14:42:35;8.20;99.90
75210;DHT22;63796;53.136;14.882;2022-11-14T14:45:15;8.20;99.90
75210;DHT22;63796;53.136;14.882;2022-11-14T14:47:57;8.20;99.90
75210;DHT22;63796;53.136;14.882;2022-11-14T14:50:21;8.20;99.90
75210;DHT22;63796;53.136;14.882;2022-11-14T14:52:59;8.10;99.90
75210;DHT22;63796;53.136;14.882;2022-11-14T14:55:29;8.00;99.90
75210;DHT22;63796;53.136;14.882;2022-11-14T14:58:25;8.00;99.90
75210;DHT22;63796;53.136;14.882;2022-11-14T15:00:57;8.00;99.90
75210;DHT22;63796;53.136;14.882;2022-11-14T15:03:31;8.10;99.90
75210;DHT22;63796;53.136;14.882;2022-11-14T15:06:16;8.10;99.90
75210;DHT22;63796;53.136;14.882;2022-11-14T15:08:45;8.20;99.90
75210;DHT22;63796;53.136;14.882;2022-11-14T15:11:13;8.10;99.90
75210;DHT22;63796;53.136;14.882;2022-11-14T15:13:41;8.10;99.90
75210;DHT22;63796;53.136;14.882;2022-11-14T15:16:09;8.10;99.90
75210;DHT22;63796;53.136;14.882;2022-11-14T15:18:37;8.20;99.90
75210;DHT22;63796;53.136;14.882;2022-11-14T15:24:10;8.00;99.90
75210;DHT22;63796;53.136;14.882;2022-11-14T15:26:45;7.80;99.90
75210;DHT22;63796;53.136;14.882;2022-11-14T15:29:23;7.70;99.90
75210;DHT22;63796;53.136;14.882;2022-11-14T15:31:58;7.80;99.90
75210;DHT22;63796;53.136;14.882;2022-11-14T15:34:33;7.70;99.90
75210;DHT22;63796;53.136;14.882;2022-11-14T15:37:14;7.70;99.90
75210;DHT22;63796;53.136;14.882;2022-11-14T15:39:40;7.60;99.90
75210;DHT22;63796;53.136;14.882;2022-11-14T15:44:51;7.70;99.90
75210;DHT22;63796;53.136;14.882;2022-11-14T15:47:27;7.70;99.90
75210;DHT22;63796;53.136;14.882;2022-11-14T15:53:03;7.70;99.90
75210;DHT22;63796;53.136;14.882;2022-11-14T15:55:32;7.60;99.90
75210;DHT22;63796;53.136;14.882;2022-11-14T15:57:59;7.60;99.90
75210;DHT22;63796;53.136;14.882;2022-11-14T16:00:26;7.60;99.90
75210;DHT22;63796;53.136;14.882;2022-11-14T16:02:55;7.70;99.90
75210;DHT22;63796;53.136;14.882;2022-11-14T16:05:28;7.70;99.90
75210;DHT22;63796;53.136;14.882;2022-11-14T16:07:56;7.70;99.90
75210;DHT22;63796;53.136;14.882;2022-11-14T16:10:25;7.60;99.90
75210;DHT22;63796;53.136;14.882;2022-11-14T16:12:53;7.60;99.90
75210;DHT22;63796;53.136;14.882;2022-11-14T16:15:20;7.70;99.90
75210;DHT22;63796;53.136;14.882;2022-11-14T16:17:49;7.70;99.90
75210;DHT22;63796;53.136;14.882;2022-11-14T16:20:21;7.70;99.90
75210;DHT22;63796;53.136;14.882;2022-11-14T16:22:50;7.60;99.90
75210;DHT22;63796;53.136;14.882;2022-11-14T16:25:21;7.70;99.90
75210;DHT22;63796;53.136;14.882;2022-11-14T16:27:50;7.60;99.90
75210;DHT22;63796;53.136;14.882;2022-11-14T16:30:19;7.60;99.90
75210;DHT22;63796;53.136;14.882;2022-11-14T16:32:48;7.60;99.90
75210;DHT22;63796;53.136;14.882;2022-11-14T16:35:20;7.50;99.90
75210;DHT22;63796;53.136;14.882;2022-11-14T16:37:49;7.50;99.90
75210;DHT22;63796;53.136;14.882;2022-11-14T16:40:21;7.50;99.90
75210;DHT22;63796;53.136;14.882;2022-11-14T16:42:56;7.50;99.90
75210;DHT22;63796;53.136;14.882;2022-11-14T16:45:25;7.60;99.90
75210;DHT22;63796;53.136;14.882;2022-11-14T16:47:52;7.50;99.90
75210;DHT22;63796;53.136;14.882;2022-11-14T16:50:19;7.50;99.90
75210;DHT22;63796;53.136;14.882;2022-11-14T16:52:46;7.50;99.90
75210;DHT22;63796;53.136;14.882;2022-11-14T16:55:13;7.50;99.90
75210;DHT22;63796;53.136;14.882;2022-11-14T16:57:40;7.60;99.90
75210;DHT22;63796;53.136;14.882;2022-11-14T17:00:11;7.50;99.90
75210;DHT22;63796;53.136;14.882;2022-11-14T17:02:41;7.50;99.90
75210;DHT22;63796;53.136;14.882;2022-11-14T17:05:09;7.40;99.90
75210;DHT22;63796;53.136;14.882;2022-11-14T17:07:36;7.50;99.90
75210;DHT22;63796;53.136;14.882;2022-11-14T17:10:04;7.40;99.90
75210;DHT22;63796;53.136;14.882;2022-11-14T17:12:32;7.40;99.90
75210;DHT22;63796;53.136;14.882;2022-11-14T17:14:59;7.40;99.90
75210;DHT22;63796;53.136;14.882;2022-11-14T17:17:26;7.50;99.90
75210;DHT22;63796;53.136;14.882;2022-11-14T17:19:53;7.50;99.90
75210;DHT22;63796;53.136;14.882;2022-11-14T17:22:19;7.40;99.90
75210;DHT22;63796;53.136;14.882;2022-11-14T17:24:46;7.40;99.90
75210;DHT22;63796;53.136;14.882;2022-11-14T17:27:13;7.30;99.90
75210;DHT22;63796;53.136;14.882;2022-11-14T17:29:40;7.30;99.90
75210;DHT22;63796;53.136;14.882;2022-11-14T17:32:07;7.30;99.90
75210;DHT22;63796;53.136;14.882;2022-11-14T17:34:34;7.30;99.90
75210;DHT22;63796;53.136;14.882;2022-11-14T17:37:00;7.30;99.90
75210;DHT22;63796;53.136;14.882;2022-11-14T17:39:27;7.30;99.90
75210;DHT22;63796;53.136;14.882;2022-11-14T17:41:54;7.30;99.90
75210;DHT22;63796;53.136;14.882;2022-11-14T17:44:21;7.30;99.90
75210;DHT22;63796;53.136;14.882;2022-11-14T17:46:48;7.30;99.90
75210;DHT22;63796;53.136;14.882;2022-11-14T17:49:15;7.20;99.90
75210;DHT22;63796;53.136;14.882;2022-11-14T17:51:42;7.20;99.90
75210;DHT22;63796;53.136;14.882;2022-11-14T17:54:09;7.10;99.90
75210;DHT22;63796;53.136;14.882;2022-11-14T17:56:35;7.10;99.90
75210;DHT22;63796;53.136;14.882;2022-11-14T17:59:02;7.00;99.90
75210;DHT22;63796;53.136;14.882;2022-11-14T18:01:32;7.00;99.90
75210;DHT22;63796;53.136;14.882;2022-11-14T18:03:59;6.90;99.90
75210;DHT22;63796;53.136;14.882;2022-11-14T18:06:26;7.00;99.90
75210;DHT22;63796;53.136;14.882;2022-11-14T18:08:53;7.00;99.90
75210;DHT22;63796;53.136;14.882;2022-11-14T18:11:20;6.90;99.90
75210;DHT22;63796;53.136;14.882;2022-11-14T18:13:47;6.90;99.90
75210;DHT22;63796;53.136;14.882;2022-11-14T18:16:19;6.90;99.90
75210;DHT22;63796;53.136;14.882;2022-11-14T18:18:46;6.80;99.90
75210;DHT22;63796;53.136;14.882;2022-11-14T18:21:16;6.80;99.90
75210;DHT22;63796;53.136;14.882;2022-11-14T18:23:49;6.80;99.90
75210;DHT22;63796;53.136;14.882;2022-11-14T18:26:18;6.80;99.90
75210;DHT22;63796;53.136;14.882;2022-11-14T18:28:46;6.70;99.90
75210;DHT22;63796;53.136;14.882;2022-11-14T18:31:13;6.70;99.90
75210;DHT22;63796;53.136;14.882;2022-11-14T18:33:40;6.70;99.90
75210;DHT22;63796;53.136;14.882;2022-11-14T18:36:10;6.70;99.90
75210;DHT22;63796;53.136;14.882;2022-11-14T18:38:37;6.70;99.90
75210;DHT22;63796;53.136;14.882;2022-11-14T18:41:08;6.70;99.90
75210;DHT22;63796;53.136;14.882;2022-11-14T18:43:37;6.70;99.90
75210;DHT22;63796;53.136;14.882;2022-11-14T18:46:13;6.70;99.90
75210;DHT22;63796;53.136;14.882;2022-11-14T18:48:45;6.70;99.90
75210;DHT22;63796;53.136;14.882;2022-11-14T18:51:16;6.60;99.90
75210;DHT22;63796;53.136;14.882;2022-11-14T18:53:45;6.60;99.90
75210;DHT22;63796;53.136;14.882;2022-11-14T18:56:14;6.50;99.90
75210;DHT22;63796;53.136;14.882;2022-11-14T18:58:43;6.40;99.90
75210;DHT22;63796;53.136;14.882;2022-11-14T19:01:13;6.40;99.90
75210;DHT22;63796;53.136;14.882;2022-11-14T19:03:43;6.40;99.90
75210;DHT22;63796;53.136;14.882;2022-11-14T19:06:11;6.40;99.90
75210;DHT22;63796;53.136;14.882;2022-11-14T19:08:39;6.30;99.90
75210;DHT22;63796;53.136;14.882;2022-11-14T19:11:11;6.30;99.90
75210;DHT22;63796;53.136;14.882;2022-11-14T19:14:03;6.30;99.90
75210;DHT22;63796;53.136;14.882;2022-11-14T19:16:35;6.30;99.90
75210;DHT22;63796;53.136;14.882;2022-11-14T19:19:04;6.20;99.90
75210;DHT22;63796;53.136;14.882;2022-11-14T19:21:32;6.30;99.90
75210;DHT22;63796;53.136;14.882;2022-11-14T19:24:01;6.20;99.90
75210;DHT22;63796;53.136;14.882;2022-11-14T19:26:29;6.30;99.90
75210;DHT22;63796;53.136;14.882;2022-11-14T19:29:00;6.30;99.90
75210;DHT22;63796;53.136;14.882;2022-11-14T19:31:35;6.30;99.90
75210;DHT22;63796;53.136;14.882;2022-11-14T19:34:05;6.30;99.90
75210;DHT22;63796;53.136;14.882;2022-11-14T19:36:34;6.40;99.90
75210;DHT22;63796;53.136;14.882;2022-11-14T19:39:01;6.30;99.90
75210;DHT22;63796;53.136;14.882;2022-11-14T19:41:29;6.20;99.90
75210;DHT22;63796;53.136;14.882;2022-11-14T19:43:57;6.20;99.90
75210;DHT22;63796;53.136;14.882;2022-11-14T19:46:25;6.30;99.90
75210;DHT22;63796;53.136;14.882;2022-11-14T19:48:59;6.30;99.90
75210;DHT22;63796;53.136;14.882;2022-11-14T19:51:27;6.30;99.90
75210;DHT22;63796;53.136;14.882;2022-11-14T19:53:56;6.20;99.90
75210;DHT22;63796;53.136;14.882;2022-11-14T19:56:24;6.10;99.90
75210;DHT22;63796;53.136;14.882;2022-11-14T19:58:52;6.00;99.90
75210;DHT22;63796;53.136;14.882;2022-11-14T20:01:25;5.90;99.90
75210;DHT22;63796;53.136;14.882;2022-11-14T20:04:00;5.80;99.90
75210;DHT22;63796;53.136;14.882;2022-11-14T20:06:33;5.80;99.90
75210;DHT22;63796;53.136;14.882;2022-11-14T20:09:04;5.80;99.90